Terminal Aerodrome Forecast
Issued by NWS Cleveland, OH

Home | Current Version | Previous Version | Graphics & Text | Print | Product List | Glossary On
Versions: 1 2 3 4 5 6 7 8 9 10 11 12 13 14 15 16 17 18 19 20 21
675
FTUS41 KCLE 090158 AAA
TAFERI
TAF AMD
KERI 090158Z 0902/0924 26008KT P6SM OVC005
     FM090400 26006KT 4SM -SN BR OVC008
      TEMPO 0905/0909 2SM -SN BR OVC006
     FM091400 24010KT 5SM -SHSN OVC012
     FM091800 25011KT P6SM OVC022=

USA.gov is the U.S. government's official web portal to all federal, state and local government web resources and services.